In Rescue
 
Open Full Screen Window  High Contrast Mode
Wind Gusting 00 knots
03
May 13, 2021 12:26 PM EDT
Weather Information
Wind Direction
  200 °
Wind Speed
  03 kt (3 mph)
Wind Gust
  00 kt (0 mph)
Altimeter
30.39 in
Visibility
10 SM
Temperature
17° C
63° F
Dewpoint
-06° C
21° F
Humidity
20%
1hr Rain Fall
00.00 in.
24hr Rain Fall
00.00 in.
Sky Condition
Clear
VFR

METAR KY70 131626Z AUTO 20003KT 10SM CLR 17/M06 A3039 RMK AO2 T01721065

FAA Disclaimer: The data displayed is for advisory purposes only and is not to be used for flight planning or operations.